Time;durP1;ratioP1;P1;durP2;ratioP2;P2;SDS_P1;SDS_P2;PMS_P1;PMS_P2;Temp;Humidity;BMP_temperature;BMP_pressure;BME280_temperature;BME280_humidity;BME280_pressure;Samples;Min_cycle;Max_cycle;Signal;HPM_P1;HPM_P2
2023/11/14 00:02:08;;;;;;;15.35;2.13;;;10.90;99.90;;;;;;12594884;28;20060;-34
2023/11/14 00:08:39;;;;;;;14.95;2.25;;;11.10;99.90;;;;;;12590317;28;20052;-35
2023/11/14 00:15:07;;;;;;;12.63;2.10;;;11.10;99.90;;;;;;12591305;28;20056;-35
2023/11/14 00:21:46;;;;;;;12.52;2.28;;;11.10;99.90;;;;;;12590276;28;20049;-35
2023/11/14 00:28:26;;;;;;;12.60;1.95;;;11.10;99.90;;;;;;12593871;28;20060;-35
2023/11/14 00:34:59;;;;;;;12.55;1.95;;;11.00;99.90;;;;;;12575687;28;20043;-35
2023/11/14 00:41:31;;;;;;;12.93;2.45;;;11.10;99.90;;;;;;12574460;28;20131;-35
2023/11/14 00:48:02;;;;;;;10.65;1.90;;;11.00;99.90;;;;;;12572977;28;20052;-35
2023/11/14 00:54:32;;;;;;;14.50;2.22;;;11.10;99.90;;;;;;12591548;28;20333;-34
2023/11/14 01:01:14;;;;;;;11.93;1.98;;;11.10;99.90;;;;;;12591203;28;20048;-35
2023/11/14 01:07:38;;;;;;;10.90;2.20;;;11.30;99.90;;;;;;12589254;28;20054;-35
2023/11/14 01:14:19;;;;;;;14.70;2.55;;;11.20;99.90;;;;;;12590467;28;20087;-35
2023/11/14 01:20:55;;;;;;;17.15;2.30;;;11.20;99.90;;;;;;12589429;28;20052;-35
2023/11/14 01:27:32;;;;;;;11.90;2.17;;;11.30;99.90;;;;;;12587536;28;20532;-35
2023/11/14 01:34:04;;;;;;;15.18;2.30;;;11.30;99.90;;;;;;12587121;28;20048;-34
2023/11/14 01:40:54;;;;;;;11.02;3.15;;;11.10;99.90;;;;;;12587183;28;20416;-34
2023/11/14 01:47:24;;;;;;;12.63;1.67;;;11.10;99.90;;;;;;12587454;28;20049;-35
2023/11/14 01:53:40;;;;;;;14.57;2.20;;;11.10;99.90;;;;;;12583563;28;20048;-35
2023/11/14 02:00:14;;;;;;;11.02;2.40;;;11.20;99.90;;;;;;12572009;28;20067;-35
2023/11/14 02:06:47;;;;;;;16.13;2.42;;;11.20;99.90;;;;;;12582722;28;20045;-35
2023/11/14 02:13:22;;;;;;;8.35;1.95;;;11.20;99.90;;;;;;12584287;28;20061;-35
2023/11/14 02:20:06;;;;;;;15.40;2.38;;;11.10;99.90;;;;;;12580055;28;20085;-35
2023/11/14 02:26:44;;;;;;;15.50;2.60;;;11.00;99.90;;;;;;12585291;28;20049;-35
2023/11/14 02:33:24;;;;;;;12.68;2.30;;;11.00;99.90;;;;;;12579270;28;20045;-35
2023/11/14 02:40:03;;;;;;;17.30;2.40;;;11.10;99.90;;;;;;12586005;28;20061;-34
2023/11/14 02:46:49;;;;;;;11.57;1.98;;;11.20;99.90;;;;;;12583763;28;20048;-35
2023/11/14 02:53:35;;;;;;;9.07;2.10;;;11.00;99.90;;;;;;12574627;28;20098;-35
2023/11/14 02:59:52;;;;;;;15.13;2.42;;;10.90;99.90;;;;;;12583073;28;20067;-35
2023/11/14 03:06:30;;;;;;;16.55;2.65;;;10.90;99.90;;;;;;12568823;28;20051;-35
2023/11/14 03:13:08;;;;;;;14.30;2.30;;;11.10;99.90;;;;;;12580750;28;20053;-34
2023/11/14 03:19:55;;;;;;;12.18;2.28;;;11.10;99.90;;;;;;12586702;28;20041;-35
2023/11/14 03:26:55;;;;;;;11.00;2.22;;;11.20;99.90;;;;;;12572383;28;20052;-35
2023/11/14 03:33:33;;;;;;;13.02;2.40;;;10.80;99.90;;;;;;12583709;28;20090;-34
2023/11/14 03:39:59;;;;;;;9.95;2.10;;;10.60;99.90;;;;;;12594397;28;20154;-35
2023/11/14 03:46:33;;;;;;;14.35;2.50;;;10.70;99.90;;;;;;12590166;28;20079;-35
2023/11/14 03:53:03;;;;;;;13.45;2.45;;;10.70;99.90;;;;;;12592325;28;20076;-35
2023/11/14 03:59:55;;;;;;;12.65;2.25;;;10.90;99.90;;;;;;12591496;28;20106;-35
2023/11/14 04:06:22;;;;;;;8.60;1.85;;;11.00;99.90;;;;;;12577050;28;20071;-35
2023/11/14 04:12:56;;;;;;;13.32;2.20;;;11.00;99.90;;;;;;12590353;28;20132;-35
2023/11/14 04:19:26;;;;;;;6.95;1.77;;;11.10;99.90;;;;;;12573033;28;20045;-35
2023/11/14 04:25:55;;;;;;;14.20;2.55;;;11.20;99.90;;;;;;12579794;28;20089;-35
2023/11/14 04:32:40;;;;;;;13.40;2.30;;;11.10;99.90;;;;;;12589619;28;20045;-34
2023/11/14 04:39:15;;;;;;;16.58;2.70;;;11.20;99.90;;;;;;12589015;28;20056;-34
2023/11/14 04:45:30;;;;;;;;;;;11.00;99.90;;;;;;12586337;28;20044;-34
2023/11/14 04:51:47;;;;;;;11.98;2.05;;;10.80;99.90;;;;;;12589209;28;20281;-35
2023/11/14 04:58:12;;;;;;;12.57;2.17;;;10.90;99.90;;;;;;12591135;28;20162;-34
2023/11/14 05:04:42;;;;;;;14.02;2.47;;;10.70;99.90;;;;;;12588564;28;20059;-34
2023/11/14 05:11:22;;;;;;;16.17;2.38;;;10.70;99.90;;;;;;12571034;28;20630;-34
2023/11/14 05:17:35;;;;;;;18.42;2.50;;;10.80;99.90;;;;;;12583207;28;20056;-34
2023/11/14 05:24:14;;;;;;;10.52;1.90;;;10.90;99.90;;;;;;12585738;28;20052;-34
2023/11/14 05:30:44;;;;;;;12.63;2.22;;;11.00;99.90;;;;;;12589010;28;20048;-35
2023/11/14 05:37:11;;;;;;;16.38;2.65;;;11.10;99.90;;;;;;12584930;28;20131;-35
2023/11/14 05:43:33;;;;;;;14.52;2.13;;;11.10;99.90;;;;;;12572139;28;20056;-34
2023/11/14 05:49:58;;;;;;;14.00;2.23;;;11.20;99.90;;;;;;12585097;28;20063;-34
2023/11/14 05:56:33;;;;;;;16.02;2.55;;;11.20;99.90;;;;;;12578239;28;20056;-35
2023/11/14 06:03:04;;;;;;;10.57;2.28;;;11.00;99.90;;;;;;12569235;28;20080;-34
2023/11/14 06:09:29;;;;;;;11.93;1.88;;;11.00;99.90;;;;;;12586117;28;20048;-35
2023/11/14 06:16:10;;;;;;;13.23;2.55;;;10.90;99.90;;;;;;12583502;28;20087;-35
2023/11/14 06:22:39;;;;;;;13.13;2.70;;;10.90;99.90;;;;;;12572605;28;20056;-35
2023/11/14 06:29:18;;;;;;;11.60;2.13;;;10.90;99.90;;;;;;12583725;28;20053;-35
2023/11/14 06:35:47;;;;;;;12.65;2.25;;;10.80;99.90;;;;;;12586084;28;20056;-35
2023/11/14 06:42:11;;;;;;;12.90;1.98;;;10.80;99.90;;;;;;12584801;28;20511;-34
2023/11/14 06:48:30;;;;;;;18.40;2.28;;;10.80;99.90;;;;;;12582980;28;20413;-34
2023/11/14 06:54:54;;;;;;;15.38;2.90;;;10.80;99.90;;;;;;12583553;28;20095;-35
2023/11/14 07:01:27;;;;;;;14.15;2.90;;;10.90;99.90;;;;;;12580614;28;20052;-35
2023/11/14 07:08:00;;;;;;;16.75;2.38;;;10.90;99.90;;;;;;12586318;28;20099;-35
2023/11/14 07:14:29;;;;;;;16.15;2.33;;;11.00;99.90;;;;;;12586123;28;20060;-35
2023/11/14 07:20:55;;;;;;;13.25;2.10;;;11.10;99.90;;;;;;12574638;28;20108;-35
2023/11/14 07:27:27;;;;;;;15.77;3.33;;;11.10;99.90;;;;;;12581943;28;20109;-35
2023/11/14 07:33:50;;;;;;;11.68;2.17;;;11.10;99.90;;;;;;12581640;28;20139;-34
2023/11/14 07:40:14;;;;;;;14.00;2.15;;;11.20;99.90;;;;;;12587983;28;20128;-35
2023/11/14 07:46:32;;;;;;;16.90;3.20;;;11.30;99.90;;;;;;12578685;28;20053;-35
2023/11/14 07:52:48;;;;;;;18.17;2.97;;;11.30;99.90;;;;;;12580417;28;20053;-34
2023/11/14 07:59:08;;;;;;;11.63;1.98;;;11.40;99.90;;;;;;12582025;28;20055;-35
2023/11/14 08:05:28;;;;;;;19.05;2.50;;;11.30;99.90;;;;;;12580320;28;20045;-35
2023/11/14 08:11:56;;;;;;;;;;;11.40;99.90;;;;;;12577878;28;20460;-35
2023/11/14 08:18:13;;;;;;;13.75;2.53;;;11.40;99.90;;;;;;12584855;28;19966;-35
2023/11/14 08:24:36;;;;;;;11.60;3.00;;;11.40;99.90;;;;;;12593651;28;20048;-34
2023/11/14 08:30:58;;;;;;;11.55;2.03;;;11.30;99.90;;;;;;12588538;28;20079;-35
2023/11/14 08:37:13;;;;;;;13.18;2.75;;;11.30;99.90;;;;;;12593114;28;20060;-35
2023/11/14 08:43:36;;;;;;;14.50;2.50;;;11.30;99.90;;;;;;12585420;28;20052;-35
2023/11/14 08:49:57;;;;;;;17.23;3.05;;;11.30;99.90;;;;;;12588721;28;20052;-34
2023/11/14 08:56:15;;;;;;;19.75;3.20;;;11.20;99.90;;;;;;12569228;28;20045;-35
2023/11/14 09:02:32;;;;;;;12.30;2.47;;;11.20;99.90;;;;;;12584680;28;20063;-35
2023/11/14 09:09:01;;;;;;;10.00;2.22;;;11.20;99.90;;;;;;12564663;28;20080;-35
2023/11/14 09:15:27;;;;;;;15.47;3.03;;;11.10;99.90;;;;;;12579590;28;20049;-35
2023/11/14 09:22:14;;;;;;;13.43;2.22;;;11.10;99.90;;;;;;12583121;28;20056;-35
2023/11/14 09:28:29;;;;;;;13.80;2.33;;;11.20;99.90;;;;;;12568303;28;20055;-35
2023/11/14 09:34:51;;;;;;;14.98;2.38;;;11.40;99.90;;;;;;12584696;28;20044;-35
2023/11/14 09:41:19;;;;;;;17.15;2.55;;;11.50;99.90;;;;;;12589966;28;20892;-35
2023/11/14 09:47:43;;;;;;;12.05;2.50;;;11.60;99.90;;;;;;12570615;28;20053;-35
2023/11/14 09:54:18;;;;;;;16.45;2.33;;;11.70;99.90;;;;;;12587676;28;20044;-35
2023/11/14 10:01:00;;;;;;;12.68;2.17;;;11.70;99.90;;;;;;12579934;28;20515;-35
2023/11/14 10:07:38;;;;;;;11.20;2.50;;;11.70;99.90;;;;;;12585566;28;20045;-34
2023/11/14 10:14:12;;;;;;;16.00;3.30;;;11.60;99.90;;;;;;12582857;28;20055;-34
2023/11/14 10:20:46;;;;;;;14.63;2.65;;;11.80;99.90;;;;;;12568132;28;20493;-35
2023/11/14 10:27:18;;;;;;;16.30;2.55;;;11.80;99.90;;;;;;12580004;28;20051;-34
2023/11/14 10:33:49;;;;;;;;;;;11.80;99.90;;;;;;12585451;28;20048;-34
2023/11/14 10:40:49;;;;;;;10.45;2.30;;;12.00;99.90;;;;;;12581495;28;19920;-35
2023/11/14 10:47:41;;;;;;;12.30;2.75;;;12.10;99.90;;;;;;12584405;28;20504;-34
2023/11/14 10:54:15;;;;;;;18.73;2.30;;;12.00;99.90;;;;;;12568744;28;21120;-35
2023/11/14 11:00:57;;;;;;;12.00;2.60;;;11.90;99.90;;;;;;12582645;28;20079;-35
2023/11/14 11:07:18;;;;;;;13.32;3.00;;;11.80;99.90;;;;;;12583907;28;20048;-35
2023/11/14 11:13:37;;;;;;;10.25;2.67;;;11.70;99.90;;;;;;12577332;28;20516;-35
2023/11/14 11:19:56;;;;;;;13.18;3.22;;;11.60;99.90;;;;;;12586330;28;20643;-34
2023/11/14 11:26:24;;;;;;;11.63;2.20;;;11.60;99.90;;;;;;12565926;28;20390;-35
2023/11/14 11:32:55;;;;;;;8.70;1.90;;;11.50;99.90;;;;;;12578107;28;20056;-35
2023/11/14 11:39:18;;;;;;;13.52;2.08;;;11.20;99.90;;;;;;12579870;28;20049;-35
2023/11/14 11:45:49;;;;;;;7.82;1.40;;;11.10;99.90;;;;;;12579846;28;20080;-35
2023/11/14 11:52:16;;;;;;;2.90;0.73;;;10.90;99.90;;;;;;12566032;28;20507;-34
2023/11/14 11:58:49;;;;;;;3.00;0.77;;;10.40;99.90;;;;;;12592078;28;20049;-34
2023/11/14 12:05:17;;;;;;;8.60;1.80;;;10.40;99.90;;;;;;12590279;28;20067;-34
2023/11/14 12:11:52;;;;;;;;;;;10.50;99.90;;;;;;12578191;28;20052;-34
2023/11/14 12:18:06;;;;;;;9.07;2.13;;;10.80;99.90;;;;;;12589946;28;20360;-34
2023/11/14 12:24:23;;;;;;;18.35;3.10;;;11.10;99.90;;;;;;12591154;28;20048;-34
2023/11/14 12:30:42;;;;;;;13.73;2.58;;;11.10;99.90;;;;;;12592921;28;20181;-35
2023/11/14 12:37:19;;;;;;;15.95;2.80;;;11.30;99.90;;;;;;12587196;28;20078;-34
2023/11/14 12:43:30;;;;;;;12.98;2.20;;;11.40;99.90;;;;;;12591595;28;20052;-35
2023/11/14 12:49:53;;;;;;;11.55;2.58;;;11.50;99.90;;;;;;12574534;28;20068;-35
2023/11/14 12:56:18;;;;;;;10.05;2.25;;;11.60;99.90;;;;;;12588444;28;20094;-35
2023/11/14 13:02:35;;;;;;;14.10;2.40;;;11.80;99.90;;;;;;12567644;28;20413;-35
2023/11/14 13:09:06;;;;;;;11.70;2.10;;;11.90;99.90;;;;;;12592148;28;20051;-35
2023/11/14 13:15:33;;;;;;;17.75;3.13;;;11.90;99.90;;;;;;12585760;28;20998;-35
2023/11/14 13:21:58;;;;;;;8.85;2.33;;;12.00;99.90;;;;;;12585549;28;20049;-35
2023/11/14 13:28:46;;;;;;;13.95;2.35;;;12.00;99.90;;;;;;12576899;28;20087;-35
2023/11/14 13:35:23;;;;;;;8.27;1.98;;;12.00;99.90;;;;;;12591334;28;20507;-35
2023/11/14 13:42:07;;;;;;;14.23;2.58;;;12.00;99.90;;;;;;12587724;28;20094;-35
2023/11/14 13:48:49;;;;;;;12.73;2.78;;;12.00;99.90;;;;;;12583514;28;20048;-35
2023/11/14 13:55:18;;;;;;;8.32;2.10;;;12.00;99.90;;;;;;12587090;28;20044;-35
2023/11/14 14:01:48;;;;;;;9.50;2.20;;;11.90;99.90;;;;;;12567277;28;20055;-35
2023/11/14 14:08:14;;;;;;;10.18;2.13;;;11.90;99.90;;;;;;12570331;28;20040;-35
2023/11/14 14:14:32;;;;;;;11.43;2.67;;;11.80;99.90;;;;;;12588002;28;20049;-35
2023/11/14 14:21:02;;;;;;;11.30;2.22;;;11.80;99.90;;;;;;12577232;28;20049;-35
2023/11/14 14:27:29;;;;;;;9.27;2.30;;;11.70;99.90;;;;;;12584620;28;20056;-34
2023/11/14 14:33:59;;;;;;;6.35;1.85;;;11.70;99.90;;;;;;12584393;28;20041;-35
2023/11/14 14:40:31;;;;;;;8.45;1.98;;;11.60;99.90;;;;;;12585484;28;20070;-35
2023/11/14 14:47:06;;;;;;;11.10;2.72;;;11.60;99.90;;;;;;12578596;28;20056;-35
2023/11/14 14:53:27;;;;;;;7.72;1.90;;;11.70;99.90;;;;;;12587383;28;20154;-35
2023/11/14 14:59:51;;;;;;;12.20;2.08;;;11.70;99.90;;;;;;12582991;28;20053;-35
2023/11/14 15:06:20;;;;;;;6.65;1.85;;;11.60;99.90;;;;;;12588134;28;20052;-35
2023/11/14 15:12:50;;;;;;;8.27;2.30;;;11.60;99.90;;;;;;12585859;28;20095;-35
2023/11/14 15:19:11;;;;;;;10.38;2.28;;;11.50;99.90;;;;;;12582818;28;20052;-35
2023/11/14 15:25:37;;;;;;;9.85;2.90;;;11.40;99.90;;;;;;12584571;28;20485;-34
2023/11/14 15:32:01;;;;;;;6.72;1.98;;;11.40;99.90;;;;;;12593595;28;20101;-35
2023/11/14 15:38:23;;;;;;;7.82;2.13;;;11.50;99.90;;;;;;12590916;28;20051;-34
2023/11/14 15:45:05;;;;;;;7.37;2.20;;;11.40;99.90;;;;;;12575830;28;20078;-35
2023/11/14 15:51:35;;;;;;;13.90;2.43;;;11.30;99.90;;;;;;12596301;28;20562;-35
2023/11/14 15:58:01;;;;;;;9.65;2.22;;;11.20;99.90;;;;;;12592201;28;20068;-35
2023/11/14 16:04:24;;;;;;;10.30;2.30;;;11.20;99.90;;;;;;12591342;28;20048;-35
2023/11/14 16:10:48;;;;;;;10.82;2.22;;;11.20;99.90;;;;;;12574348;28;20056;-35
2023/11/14 16:17:14;;;;;;;8.07;1.88;;;11.20;99.90;;;;;;12591915;28;20091;-35
2023/11/14 16:23:39;;;;;;;11.38;2.15;;;11.20;99.90;;;;;;12586196;28;20067;-35
2023/11/14 16:29:54;;;;;;;7.65;1.60;;;11.20;99.90;;;;;;12573195;28;20044;-35
2023/11/14 16:36:21;;;;;;;7.07;2.20;;;11.20;99.90;;;;;;12582228;28;20098;-35
2023/11/14 16:42:52;;;;;;;5.63;2.15;;;11.10;99.90;;;;;;12588387;28;20048;-35
2023/11/14 16:49:14;;;;;;;9.15;2.25;;;11.20;99.90;;;;;;12587009;28;20049;-35
2023/11/14 16:55:42;;;;;;;8.23;2.15;;;11.10;99.90;;;;;;12589356;28;20048;-35
2023/11/14 17:02:01;;;;;;;6.68;1.77;;;11.10;99.90;;;;;;12590645;28;20454;-35
2023/11/14 17:08:31;;;;;;;4.30;1.73;;;11.10;99.90;;;;;;12586168;28;20063;-35
2023/11/14 17:15:02;;;;;;;6.82;2.60;;;11.00;99.90;;;;;;12585889;28;20138;-35
2023/11/14 17:21:33;;;;;;;7.65;2.22;;;11.00;99.90;;;;;;12570422;28;20052;-35
2023/11/14 17:27:56;;;;;;;7.03;2.05;;;11.00;99.90;;;;;;12590819;28;20052;-35
2023/11/14 17:34:23;;;;;;;;;;;11.00;99.90;;;;;;12583224;28;20136;-34
2023/11/14 17:40:52;;;;;;;4.22;2.10;;;11.00;99.90;;;;;;12584225;28;19920;-35
2023/11/14 17:47:24;;;;;;;6.95;2.13;;;10.90;99.90;;;;;;12584714;28;20059;-35
2023/11/14 17:53:50;;;;;;;6.00;2.30;;;10.90;99.90;;;;;;12582525;28;20552;-35
2023/11/14 18:00:23;;;;;;;6.15;2.35;;;10.90;99.90;;;;;;12570840;28;20089;-34
2023/11/14 18:07:05;;;;;;;6.50;2.40;;;10.90;99.90;;;;;;12573500;28;20170;-34
2023/11/14 18:13:30;;;;;;;5.38;2.03;;;10.70;99.90;;;;;;12585372;28;20530;-35
2023/11/14 18:19:56;;;;;;;5.13;2.00;;;10.50;99.90;;;;;;12586334;28;20059;-35
2023/11/14 18:26:41;;;;;;;6.32;1.95;;;10.30;99.90;;;;;;12584260;28;20056;-35
2023/11/14 18:33:15;;;;;;;8.75;2.38;;;10.20;99.90;;;;;;12588829;28;20048;-34
2023/11/14 18:39:48;;;;;;;5.18;1.50;;;10.20;99.90;;;;;;12581554;28;20508;-34
2023/11/14 18:46:20;;;;;;;4.95;1.65;;;10.00;99.90;;;;;;12581241;28;20074;-34
2023/11/14 18:52:55;;;;;;;4.65;1.67;;;10.00;99.90;;;;;;12583291;28;20067;-34
2023/11/14 18:59:48;;;;;;;5.85;1.80;;;9.90;99.90;;;;;;12574728;28;20041;-34
2023/11/14 19:06:32;;;;;;;3.92;1.70;;;9.80;99.90;;;;;;12577706;28;20404;-34
2023/11/14 19:12:53;;;;;;;4.80;1.95;;;9.80;99.90;;;;;;12570205;28;20114;-34
2023/11/14 19:19:37;;;;;;;5.57;2.28;;;9.70;99.90;;;;;;12552156;28;20101;-34
2023/11/14 19:26:23;;;;;;;4.57;1.88;;;9.70;99.90;;;;;;12582310;28;20102;-35
2023/11/14 19:32:51;;;;;;;6.72;2.33;;;9.70;99.90;;;;;;12585779;28;20135;-35
2023/11/14 19:39:18;;;;;;;4.28;2.08;;;9.80;99.90;;;;;;12583337;28;20057;-35
2023/11/14 19:45:44;;;;;;;4.60;2.20;;;9.80;99.90;;;;;;12582291;28;20054;-34
2023/11/14 19:52:32;;;;;;;4.95;2.75;;;9.90;99.90;;;;;;12583148;28;20509;-35
2023/11/14 19:59:09;;;;;;;4.65;2.13;;;9.90;99.90;;;;;;12566344;28;20190;-34
2023/11/14 20:05:44;;;;;;;6.72;2.92;;;9.80;99.90;;;;;;12586095;28;20048;-34
2023/11/14 20:12:24;;;;;;;5.82;2.40;;;9.80;99.90;;;;;;12568287;28;20048;-34
2023/11/14 20:18:59;;;;;;;4.53;2.30;;;9.90;99.90;;;;;;12589269;28;20044;-34
2023/11/14 20:25:53;;;;;;;4.93;2.20;;;9.80;99.90;;;;;;12590589;28;20493;-34
2023/11/14 20:32:34;;;;;;;4.88;2.03;;;9.70;99.90;;;;;;12586862;28;20109;-34
2023/11/14 20:39:29;;;;;;;4.65;2.47;;;9.80;99.90;;;;;;12589359;28;20052;-35
2023/11/14 20:46:31;;;;;;;6.82;2.85;;;9.70;99.90;;;;;;12591413;28;20077;-34
2023/11/14 20:53:24;;;;;;;5.30;3.00;;;9.70;99.90;;;;;;12588197;28;20117;-35
2023/11/14 21:00:15;;;;;;;7.45;3.05;;;9.60;99.90;;;;;;12591250;28;20056;-35
2023/11/14 21:06:51;;;;;;;5.72;2.83;;;9.60;99.90;;;;;;12589837;28;20056;-34
2023/11/14 21:13:31;;;;;;;5.32;2.92;;;9.60;99.90;;;;;;12586013;28;20066;-34
2023/11/14 21:20:12;;;;;;;7.70;3.58;;;9.60;99.90;;;;;;12588113;28;20416;-34
2023/11/14 21:27:04;;;;;;;5.22;2.90;;;9.50;99.90;;;;;;12586812;28;20099;-34
2023/11/14 21:33:51;;;;;;;4.88;2.70;;;9.50;99.90;;;;;;12583882;28;20049;-34
2023/11/14 21:40:39;;;;;;;6.82;3.08;;;9.40;99.90;;;;;;12584674;28;20128;-34
2023/11/14 21:47:38;;;;;;;4.30;2.55;;;9.50;99.90;;;;;;12594512;28;20051;-34
2023/11/14 21:54:29;;;;;;;3.65;1.85;;;9.40;99.90;;;;;;12575468;28;20044;-34
2023/11/14 22:01:21;;;;;;;4.40;1.85;;;9.40;99.90;;;;;;12577114;28;20084;-34
2023/11/14 22:08:03;;;;;;;7.88;2.25;;;9.40;99.90;;;;;;12588063;28;20048;-34
2023/11/14 22:14:40;;;;;;;3.17;1.98;;;9.40;99.90;;;;;;12575966;28;20130;-34
2023/11/14 22:21:04;;;;;;;5.43;2.85;;;9.30;99.90;;;;;;12568913;28;20052;-34
2023/11/14 22:27:36;;;;;;;4.38;2.40;;;9.30;99.90;;;;;;12567598;28;20814;-35
2023/11/14 22:33:56;;;;;;;3.55;2.15;;;9.30;99.90;;;;;;12582207;28;20068;-34
2023/11/14 22:40:31;;;;;;;3.05;2.08;;;9.30;99.90;;;;;;12587199;28;20048;-34
2023/11/14 22:47:05;;;;;;;3.63;2.40;;;9.30;99.90;;;;;;12565233;28;20053;-34
2023/11/14 22:53:22;;;;;;;4.93;2.58;;;9.30;99.90;;;;;;12568367;28;20099;-34
2023/11/14 22:59:42;;;;;;;5.10;2.78;;;9.30;99.90;;;;;;12569629;28;20497;-34
2023/11/14 23:06:06;;;;;;;5.45;2.97;;;9.40;99.90;;;;;;12582705;28;20049;-34
2023/11/14 23:12:28;;;;;;;8.05;3.28;;;9.40;99.90;;;;;;12568191;28;20131;-35
2023/11/14 23:19:14;;;;;;;5.38;3.17;;;9.40;99.90;;;;;;12576975;28;20059;-35
2023/11/14 23:25:48;;;;;;;5.63;3.67;;;9.40;99.90;;;;;;12583405;28;20079;-35
2023/11/14 23:31:59;;;;;;;6.87;3.83;;;9.30;99.90;;;;;;12576095;28;20064;-35
2023/11/14 23:38:24;;;;;;;7.70;3.55;;;9.40;99.90;;;;;;12564878;28;20501;-35
2023/11/14 23:44:53;;;;;;;5.75;2.78;;;9.30;99.90;;;;;;12580584;28;20059;-36
2023/11/14 23:51:20;;;;;;;7.28;3.33;;;9.40;99.90;;;;;;12589495;28;20117;-35
2023/11/14 23:57:45;;;;;;;6.35;3.53;;;9.40;99.90;;;;;;12579845;28;20056;-34
